Etusivu
METAR-TAF:

METAR-TAF

Lentoasemat :

Colmar, Ranska

Leveyspiiri: 48-06-37N, Pituuspiiri: 7-21-33E, korkeus merenpinnasta: 191 m

Tämänhetkinen sää

Tämä raportti tehtiin 28 minuuttia sitten, kello 11.00 UTC
Tuuli 4 kn lännestä, vaihdellen lännen/lounaan ja pohjoisen/luoteen välillä
Lämpötila 8°C
Kosteus 61%
Ilmanpaine 1025 hPa
Näkyvyys 10 km tai enemmän
Hajonneita pilviä 3800 ft:n korkeudessa
Hajonneita pilviä 4400 ft:n korkeudessa
Hajonneita pilviä 8800 ft:n korkeudessa

METAR: LFGA 101100Z AUTO 27004KT 240V330 9999 BKN038 BKN044 BKN088 08/01 Q1025

Aika: 12:28 (11:28 UTC)


TAF: puuttuu

Säähavainnot ja -ennusteet yli 4000 lentoasemalta (METAR- ja TAF-raportit).

Käytössä olevat sääasemat on merkitty karttaan keltaisilla ja punaisilla pisteillä.

Aseta hiiri pisteen päälle nähdäksesi sääaseman nimen.

Klikkaa sitten nähdäksesi säähavainnot ja -ennusteet.

Kartan vaihtaminen: klikkaa mustalla rastilla varustettuja vihreitä pisteitä, niin voit zoomata sisään; viivalla varustettua vihreää pistettä, niin voit zoomata ulos tai vihreitä nuolia, niin pääset viereisille kartoille.


METAR-TAF: